Time;durP1;ratioP1;P1;durP2;ratioP2;P2;SDS_P1;SDS_P2;PMS_P1;PMS_P2;Temp;Humidity;BMP_temperature;BMP_pressure;BME280_temperature;BME280_humidity;BME280_pressure;Samples;Min_cycle;Max_cycle;Signal;HPM_P1;HPM_P2
2023/05/25 00:01:26;;;;;;;14.60;9.63;;;;;;;18.14;60.17;99854.72;4286474;33;20476;-84
2023/05/25 00:03:54;;;;;;;16.05;9.57;;;;;;;17.99;60.16;99856.53;4274311;33;20168;-84
2023/05/25 00:06:19;;;;;;;13.25;9.68;;;;;;;18.03;60.17;99861.53;4274901;33;20092;-84
2023/05/25 00:08:45;;;;;;;11.90;8.57;;;;;;;18.01;60.17;99857.28;4274625;33;20449;-84
2023/05/25 00:11:11;;;;;;;15.05;8.98;;;;;;;18.20;60.17;99849.94;4274329;33;20503;-83
2023/05/25 00:13:37;;;;;;;14.50;9.73;;;;;;;18.35;60.19;99854.25;4274560;33;20159;-83
2023/05/25 00:16:03;;;;;;;15.77;10.02;;;;;;;18.19;60.18;99860.56;4286297;33;20089;-83
2023/05/25 00:18:28;;;;;;;14.13;9.85;;;;;;;18.13;60.17;99853.03;4286178;33;20470;-83
2023/05/25 00:20:54;;;;;;;17.50;11.00;;;;;;;18.10;60.18;99857.56;4274025;33;29947;-84
2023/05/25 00:23:20;;;;;;;14.13;9.93;;;;;;;18.19;60.18;99856.13;4286010;33;20757;-83
2023/05/25 00:25:45;;;;;;;13.65;9.90;;;;;;;18.22;60.18;99850.72;4286439;33;20092;-84
2023/05/25 00:28:11;;;;;;;15.18;9.65;;;;;;;18.26;60.18;99846.09;4286074;33;20120;-82
2023/05/25 00:30:36;;;;;;;18.48;9.60;;;;;;;18.09;60.17;99853.22;4285068;33;36966;-83
2023/05/25 00:33:02;;;;;;;15.90;10.30;;;;;;;17.95;60.16;99853.22;4273691;33;23168;-83
2023/05/25 00:35:27;;;;;;;16.62;9.57;;;;;;;17.97;60.16;99848.69;4287364;33;21888;-83
2023/05/25 00:37:53;;;;;;;15.95;10.73;;;;;;;17.92;60.17;99848.13;4273625;33;20131;-84
2023/05/25 00:40:18;;;;;;;14.35;10.07;;;;;;;17.98;60.16;99855.69;4287652;33;33536;-85
2023/05/25 00:42:43;;;;;;;15.23;10.25;;;;;;;18.13;60.17;99853.03;4276414;33;20141;-83
2023/05/25 00:45:09;;;;;;;18.20;10.25;;;;;;;17.98;60.17;99853.06;4288296;33;20144;-83
2023/05/25 00:47:35;;;;;;;16.58;10.95;;;;;;;17.77;60.16;99860.47;4288530;33;20454;-84
2023/05/25 00:50:01;;;;;;;16.30;10.32;;;;;;;17.58;60.14;99861.59;4287877;33;20113;-85
2023/05/25 00:52:26;;;;;;;17.55;10.77;;;;;;;17.87;60.16;99868.66;4283192;33;20145;-84
2023/05/25 00:54:53;;;;;;;13.98;9.60;;;;;;;17.82;60.16;99869.88;4273952;33;20161;-84
2023/05/25 00:57:21;;;;;;;15.98;10.75;;;;;;;17.69;60.14;99869.72;4276620;33;20470;-84
2023/05/25 00:59:49;;;;;;;17.58;11.50;;;;;;;17.52;60.14;99875.12;4287986;33;20189;-84
2023/05/25 01:02:16;;;;;;;15.18;10.38;;;;;;;17.70;60.15;99871.44;4276276;33;20160;-84
2023/05/25 01:04:59;;;;;;;15.23;10.70;;;;;;;17.47;60.14;99872.75;4287921;33;20097;-83
2023/05/25 01:07:25;;;;;;;15.52;10.27;;;;;;;17.38;60.12;99882.03;4288216;33;20172;-85
2023/05/25 01:09:57;;;;;;;16.55;10.02;;;;;;;17.57;60.14;99868.66;4287994;33;20457;-84
2023/05/25 01:12:23;;;;;;;18.20;10.10;;;;;;;17.58;60.14;99875.62;4287849;33;20104;-84
2023/05/25 01:14:48;;;;;;;15.85;10.35;;;;;;;17.53;60.14;99875.03;4283913;33;20122;-84
2023/05/25 01:17:14;;;;;;;18.55;11.38;;;;;;;17.67;60.15;99880.34;4282768;33;20108;-84
2023/05/25 01:19:40;;;;;;;14.95;10.60;;;;;;;17.64;60.15;99874.41;4278767;33;20152;-84
2023/05/25 01:22:19;;;;;;;14.60;10.10;;;;;;;17.72;60.15;99875.66;4284844;33;20511;-84
2023/05/25 01:25:09;;;;;;;17.05;9.65;;;;;;;17.62;60.15;99890.28;4289063;33;20109;-83
2023/05/25 01:27:50;;;;;;;14.60;10.43;;;;;;;17.42;60.14;99883.53;4280767;33;20132;-85
2023/05/25 01:30:16;;;;;;;20.67;11.60;;;;;;;17.30;60.13;99889.53;4275013;33;20250;-85
2023/05/25 01:32:41;;;;;;;14.87;11.05;;;;;;;17.10;60.12;99895.06;4287540;33;20100;-83
2023/05/25 01:35:07;;;;;;;15.63;10.70;;;;;;;17.16;60.12;99892.09;4287853;33;20092;-85
2023/05/25 01:37:36;;;;;;;16.50;10.50;;;;;;;17.00;60.11;99899.12;4285776;33;20108;-84
2023/05/25 01:40:04;;;;;;;16.17;10.57;;;;;;;17.04;60.12;99895.44;4279094;33;20117;-84
2023/05/25 01:42:29;;;;;;;16.73;10.60;;;;;;;17.15;60.11;99893.03;4282916;33;20157;-84
2023/05/25 01:44:55;;;;;;;20.80;11.45;;;;;;;17.16;60.13;99895.56;4287169;33;34527;-84
2023/05/25 01:47:31;;;;;;;16.80;11.30;;;;;;;17.04;60.12;99898.91;4275864;33;20464;-84
2023/05/25 01:50:22;;;;;;;18.67;11.30;;;;;;;16.96;60.11;99901.09;4277600;33;20100;-84
2023/05/25 01:52:53;;;;;;;15.98;10.95;;;;;;;16.94;60.11;99899.50;4272038;33;20150;-84
2023/05/25 01:55:19;;;;;;;15.02;10.27;;;;;;;17.04;60.12;99903.31;4272066;33;20558;-84
2023/05/25 01:57:45;;;;;;;15.27;11.02;;;;;;;17.04;60.12;99898.06;4284659;33;20101;-84
2023/05/25 02:00:12;;;;;;;16.48;10.23;;;;;;;17.11;60.12;99902.87;4276241;33;20155;-84
2023/05/25 02:02:37;;;;;;;21.45;11.70;;;;;;;17.13;60.12;99906.25;4288200;33;20121;-84
2023/05/25 02:05:03;;;;;;;17.25;11.30;;;;;;;17.05;60.11;99900.59;4276136;33;20088;-85
2023/05/25 02:07:29;;;;;;;18.02;12.13;;;;;;;17.37;60.12;99906.66;4289699;33;20105;-85
2023/05/25 02:09:54;;;;;;;15.00;11.07;;;;;;;17.25;60.13;99899.44;4290444;33;20112;-85
2023/05/25 02:12:19;;;;;;;16.85;11.40;;;;;;;17.13;60.12;99900.16;4289456;33;36342;-85
2023/05/25 02:14:47;;;;;;;19.50;10.85;;;;;;;17.15;60.12;99898.28;4290027;33;20873;-85
2023/05/25 02:17:13;;;;;;;18.67;11.57;;;;;;;17.01;60.12;99899.06;4286875;33;20482;-85
2023/05/25 02:19:38;;;;;;;17.12;11.20;;;;;;;16.92;60.11;99904.84;4294490;33;20148;-84
2023/05/25 02:22:04;;;;;;;16.20;11.73;;;;;;;16.97;60.11;99900.16;4288307;33;20682;-85
2023/05/25 02:24:29;;;;;;;20.65;11.70;;;;;;;16.90;60.11;99903.22;4275608;33;20644;-85
2023/05/25 02:26:55;;;;;;;18.37;11.48;;;;;;;16.79;60.10;99907.28;4287787;33;20191;-84
2023/05/25 02:29:20;;;;;;;18.12;11.20;;;;;;;17.01;60.12;99908.72;4287486;33;20153;-84
2023/05/25 02:31:46;;;;;;;14.98;10.88;;;;;;;16.78;60.09;99915.25;4287103;33;25564;-85
2023/05/25 02:34:14;;;;;;;20.80;12.07;;;;;;;16.82;60.10;99901.87;4287841;33;20180;-84
2023/05/25 02:36:42;;;;;;;20.45;11.80;;;;;;;16.79;60.10;99901.19;4287508;33;20459;-84
2023/05/25 02:39:08;;;;;;;18.52;11.77;;;;;;;17.08;60.12;99902.22;4287636;33;20145;-83
2023/05/25 02:41:33;;;;;;;18.35;11.63;;;;;;;16.81;60.10;99908.06;4287760;33;20383;-83
2023/05/25 02:43:58;;;;;;;20.00;11.38;;;;;;;16.73;60.10;99906.78;4287683;33;20386;-83
2023/05/25 02:46:24;;;;;;;19.60;11.55;;;;;;;16.86;60.11;99916.53;4287401;33;20439;-84
2023/05/25 02:48:49;;;;;;;17.30;11.32;;;;;;;17.06;60.11;99912.81;4287795;33;20190;-83
2023/05/25 02:51:15;;;;;;;17.48;11.35;;;;;;;17.11;60.11;99918.66;4287374;33;20385;-84
2023/05/25 02:53:40;;;;;;;16.62;11.65;;;;;;;16.90;60.10;99909.34;4286904;33;37711;-84
2023/05/25 02:56:06;;;;;;;20.12;11.85;;;;;;;16.81;60.10;99910.69;4287612;33;20113;-83
2023/05/25 02:58:31;;;;;;;16.60;11.38;;;;;;;16.52;60.08;99917.47;4286134;33;20532;-84
2023/05/25 03:00:58;;;;;;;16.92;11.82;;;;;;;16.50;60.09;99918.50;4287265;33;20156;-84
2023/05/25 03:03:25;;;;;;;17.52;11.98;;;;;;;16.39;60.08;99926.97;4275569;33;20108;-83
2023/05/25 03:05:51;;;;;;;17.25;11.18;;;;;;;16.80;60.10;99929.19;4287503;33;20128;-83
2023/05/25 03:08:16;;;;;;;17.83;12.00;;;;;;;16.55;60.09;99930.44;4287425;33;20152;-83
2023/05/25 03:10:41;;;;;;;19.37;11.90;;;;;;;16.60;60.08;99932.87;4287519;33;20129;-83
2023/05/25 03:13:07;;;;;;;17.55;10.65;;;;;;;16.90;60.10;99935.62;4286840;33;23236;-83
2023/05/25 03:15:32;;;;;;;16.85;11.57;;;;;;;16.90;60.10;99927.75;4286515;33;36375;-83
2023/05/25 03:18:00;;;;;;;22.40;11.75;;;;;;;16.92;60.10;99932.91;4287006;33;21471;-83
2023/05/25 03:20:26;;;;;;;20.95;11.80;;;;;;;17.05;60.11;99937.41;4287548;33;20120;-83
2023/05/25 03:22:51;;;;;;;21.08;11.55;;;;;;;17.11;60.11;99939.69;4287485;33;20116;-83
2023/05/25 03:25:17;;;;;;;18.00;12.77;;;;;;;17.10;60.12;99937.16;4286691;33;28039;-83
2023/05/25 03:27:42;;;;;;;17.67;11.68;;;;;;;17.22;60.12;99938.22;4286846;33;24844;-83
2023/05/25 03:30:08;;;;;;;24.45;12.35;;;;;;;17.21;60.12;99936.53;4286812;33;20165;-82
2023/05/25 03:32:35;;;;;;;17.05;11.12;;;;;;;17.16;60.12;99937.66;4287192;33;20130;-83
2023/05/25 03:35:00;;;;;;;17.33;10.77;;;;;;;17.25;60.13;99936.28;4286955;33;20210;-83
2023/05/25 03:37:25;;;;;;;17.83;10.57;;;;;;;17.27;60.12;99931.81;4287036;33;20132;-83
2023/05/25 03:39:51;;;;;;;16.00;10.63;;;;;;;17.45;60.13;99936.00;4286425;33;28517;-83
2023/05/25 03:42:16;;;;;;;18.58;11.32;;;;;;;17.51;60.13;99942.72;4286494;33;20116;-83
2023/05/25 03:44:41;;;;;;;17.15;12.05;;;;;;;17.60;60.14;99938.69;4285825;33;36297;-83
2023/05/25 03:47:07;;;;;;;15.50;11.27;;;;;;;17.66;60.14;99938.34;4286573;33;20116;-83
2023/05/25 03:49:32;;;;;;;17.48;11.63;;;;;;;17.77;60.14;99939.44;4284610;33;29797;-83
2023/05/25 03:52:00;;;;;;;17.45;10.55;;;;;;;17.68;60.14;99939.97;4286431;33;20133;-83
2023/05/25 03:54:26;;;;;;;16.75;11.88;;;;;;;17.71;60.15;99931.87;4286955;33;20104;-83
2023/05/25 03:56:51;;;;;;;17.60;11.18;;;;;;;17.87;60.16;99936.25;4286790;33;20205;-84
2023/05/25 03:59:17;;;;;;;15.18;10.32;;;;;;;17.79;60.16;99942.84;4274263;33;26389;-84
2023/05/25 04:01:43;;;;;;;20.00;11.45;;;;;;;17.74;60.15;99950.16;4286489;33;20085;-84
2023/05/25 04:04:08;;;;;;;16.58;10.35;;;;;;;17.79;60.15;99949.88;4286380;33;20144;-84
2023/05/25 04:06:35;;;;;;;16.12;11.20;;;;;;;17.81;60.15;99950.66;4286764;33;20219;-83
2023/05/25 04:09:02;;;;;;;16.95;10.40;;;;;;;17.90;60.15;99955.34;4286706;33;20115;-84
2023/05/25 04:11:28;;;;;;;15.93;11.30;;;;;;;17.85;60.16;99957.41;4288443;33;20101;-85
2023/05/25 04:13:53;;;;;;;19.37;11.00;;;;;;;17.99;60.16;99959.25;4276699;33;20136;-84
2023/05/25 04:16:20;;;;;;;17.30;10.55;;;;;;;18.03;60.17;99961.63;4288322;33;24953;-83
2023/05/25 04:18:45;;;;;;;18.50;11.12;;;;;;;18.02;60.16;99964.34;4288842;33;20092;-83
2023/05/25 04:21:11;;;;;;;17.10;10.80;;;;;;;18.07;60.16;99959.62;4288194;33;20124;-83
2023/05/25 04:23:36;;;;;;;17.92;10.38;;;;;;;17.94;60.16;99967.41;4288345;33;20125;-83
2023/05/25 04:26:02;;;;;;;15.55;10.55;;;;;;;18.09;60.17;99963.87;4288168;33;22580;-83
2023/05/25 04:28:28;;;;;;;15.38;11.43;;;;;;;18.02;60.17;99965.19;4288478;33;20370;-83
2023/05/25 04:30:56;;;;;;;16.50;11.35;;;;;;;18.28;60.18;99965.41;4288282;33;20160;-83
2023/05/25 04:33:22;;;;;;;17.20;10.95;;;;;;;18.30;60.18;99968.81;4288484;33;20172;-83
2023/05/25 04:35:49;;;;;;;16.05;11.73;;;;;;;18.34;60.18;99965.03;4288555;33;20493;-83
2023/05/25 04:38:16;;;;;;;15.10;10.90;;;;;;;18.45;60.18;99967.84;4288517;33;20084;-83
2023/05/25 04:40:42;;;;;;;14.73;10.10;;;;;;;18.41;60.18;99958.44;4276444;33;20088;-83
2023/05/25 04:43:12;;;;;;;14.70;10.05;;;;;;;18.45;60.19;99967.84;4288183;33;20152;-83
2023/05/25 04:45:38;;;;;;;18.08;10.73;;;;;;;18.35;60.18;99972.84;4288580;33;20137;-85
2023/05/25 04:48:03;;;;;;;16.12;10.77;;;;;;;18.44;60.18;99967.94;4288307;33;20183;-83
2023/05/25 04:50:29;;;;;;;19.02;11.35;;;;;;;18.37;60.18;99964.84;4287513;33;36758;-84
2023/05/25 04:52:54;;;;;;;16.40;10.10;;;;;;;18.50;60.19;99964.97;4288417;33;20172;-84
2023/05/25 04:55:20;;;;;;;17.67;11.70;;;;;;;18.50;60.19;99960.53;4289976;33;20168;-83
2023/05/25 04:57:45;;;;;;;20.02;10.23;;;;;;;18.55;60.19;99968.16;4288402;33;20108;-83
2023/05/25 05:00:14;;;;;;;16.85;10.23;;;;;;;18.56;60.19;99968.06;4288201;33;20112;-84
2023/05/25 05:02:39;;;;;;;15.65;10.65;;;;;;;18.65;60.19;99977.22;4267463;33;20142;-83
2023/05/25 05:05:05;;;;;;;17.17;10.95;;;;;;;18.47;60.19;99962.53;4288351;33;20116;-82
2023/05/25 05:07:30;;;;;;;17.60;10.45;;;;;;;18.54;60.19;99971.75;4288530;33;20096;-83
2023/05/25 05:09:56;;;;;;;16.45;10.60;;;;;;;18.54;60.20;99969.94;4287976;33;20108;-84
2023/05/25 05:12:21;;;;;;;15.40;10.02;;;;;;;18.81;60.21;99969.22;4288134;33;20136;-83
2023/05/25 05:14:46;;;;;;;15.00;10.07;;;;;;;18.82;60.21;99970.91;4287570;33;30454;-83
2023/05/25 05:17:12;;;;;;;16.67;10.50;;;;;;;18.97;60.21;99969.94;4287549;33;31385;-83
2023/05/25 05:19:37;;;;;;;16.95;10.70;;;;;;;19.03;60.22;99969.56;4287452;33;38743;-84
2023/05/25 05:22:03;;;;;;;15.38;9.98;;;;;;;19.10;60.22;99975.28;4287570;33;20101;-84
2023/05/25 05:24:28;;;;;;;15.13;10.20;;;;;;;19.07;60.22;99976.34;4288053;33;20135;-84
2023/05/25 05:26:54;;;;;;;12.95;9.77;;;;;;;19.20;60.22;99979.91;4287839;33;20494;-82
2023/05/25 05:29:19;;;;;;;16.10;10.52;;;;;;;19.30;60.23;99978.34;4288555;33;20123;-83
2023/05/25 05:31:45;;;;;;;18.87;11.32;;;;;;;19.54;60.25;99983.88;4288029;33;20106;-83
2023/05/25 05:34:10;;;;;;;16.35;10.15;;;;;;;19.49;60.24;99971.88;4288235;33;20169;-83
2023/05/25 05:36:36;;;;;;;14.20;9.85;;;;;;;19.71;60.26;99972.19;4288123;33;20116;-83
2023/05/25 05:39:02;;;;;;;15.75;11.02;;;;;;;19.60;60.25;99970.25;4288209;33;20160;-83
2023/05/25 05:41:27;;;;;;;15.25;10.55;;;;;;;19.54;60.24;99977.75;4287912;33;20475;-83
2023/05/25 05:43:53;;;;;;;18.17;10.40;;;;;;;19.86;60.27;99981.72;4287852;33;20187;-81
2023/05/25 05:46:19;;;;;;;14.05;9.95;;;;;;;19.76;60.25;99979.81;4287670;33;20152;-82
2023/05/25 05:48:44;;;;;;;14.27;10.73;;;;;;;19.83;60.25;99970.53;4263360;33;20401;-84
2023/05/25 05:51:10;;;;;;;14.68;9.07;;;;;;;19.76;60.25;99985.09;4287528;33;20219;-82
2023/05/25 05:53:35;;;;;;;18.10;9.98;;;;;;;19.74;60.25;99981.72;4287673;33;20120;-82
2023/05/25 05:56:01;;;;;;;18.00;10.05;;;;;;;19.72;60.26;99981.81;4275352;33;23885;-83
2023/05/25 05:58:28;;;;;;;13.25;9.20;;;;;;;19.57;60.25;99983.66;4288014;33;20088;-83
2023/05/25 06:00:53;;;;;;;14.35;10.18;;;;;;;19.97;60.27;99983.66;4287435;33;20101;-83
2023/05/25 06:03:19;;;;;;;17.10;10.00;;;;;;;20.06;60.27;99984.84;4288133;33;20379;-83
2023/05/25 06:05:45;;;;;;;16.20;11.25;;;;;;;19.96;60.27;99975.84;4287926;33;20097;-83
2023/05/25 06:08:10;;;;;;;14.75;10.43;;;;;;;19.92;60.26;99988.44;4287800;33;20136;-83
2023/05/25 06:10:37;;;;;;;14.93;11.32;;;;;;;19.98;60.27;99988.00;4287506;33;20200;-83
2023/05/25 06:13:02;;;;;;;15.98;10.70;;;;;;;20.08;60.27;99993.50;4288176;33;20541;-83
2023/05/25 06:15:27;;;;;;;18.10;10.88;;;;;;;19.97;60.27;99994.25;4288903;33;20128;-83
2023/05/25 06:17:53;;;;;;;15.85;10.07;;;;;;;20.27;60.28;100003.69;4287054;33;33240;-83
2023/05/25 06:20:18;;;;;;;15.35;10.55;;;;;;;20.38;60.28;99996.72;4275309;33;22635;-84
2023/05/25 06:22:43;;;;;;;14.93;10.85;;;;;;;20.48;60.30;99999.59;4288831;33;21851;-83
2023/05/25 06:25:09;;;;;;;15.30;10.45;;;;;;;20.34;60.29;99997.88;4288739;33;20148;-83
2023/05/25 06:27:35;;;;;;;16.45;10.50;;;;;;;20.25;60.28;100006.44;4288148;33;20900;-83
2023/05/25 06:30:00;;;;;;;15.13;10.10;;;;;;;20.43;60.29;99999.94;4287599;33;20127;-83
2023/05/25 06:32:26;;;;;;;14.85;10.77;;;;;;;20.37;60.29;99997.69;4287832;33;20402;-83
2023/05/25 06:34:51;;;;;;;17.05;11.23;;;;;;;20.65;60.30;99996.66;4287404;33;20490;-83
2023/05/25 06:37:17;;;;;;;19.25;10.38;;;;;;;20.67;60.30;99996.53;4287362;33;23904;-83
2023/05/25 06:39:42;;;;;;;16.33;10.70;;;;;;;20.80;60.31;99994.72;4287670;33;20159;-83
2023/05/25 06:42:08;;;;;;;19.05;9.82;;;;;;;20.87;60.32;100000.44;4288457;33;31824;-83
2023/05/25 06:44:34;;;;;;;15.98;9.85;;;;;;;21.25;60.34;99993.28;4275382;33;20107;-83
2023/05/25 06:47:00;;;;;;;13.55;9.43;;;;;;;21.63;60.35;99995.78;4288111;33;20160;-83
2023/05/25 06:49:25;;;;;;;15.15;9.30;;;;;;;21.65;60.36;100004.44;4275624;33;20108;-83
2023/05/25 06:51:50;;;;;;;14.80;10.30;;;;;;;21.55;60.34;100003.44;4287249;33;23616;-84
2023/05/25 06:54:16;;;;;;;17.80;10.77;;;;;;;21.74;60.36;99998.47;4275444;33;20466;-84
2023/05/25 06:56:41;;;;;;;14.18;9.63;;;;;;;21.84;60.37;99997.78;4287180;33;26207;-83
2023/05/25 06:59:07;;;;;;;15.20;9.88;;;;;;;21.78;60.36;100000.91;4287444;33;20169;-84
2023/05/25 07:01:32;;;;;;;16.48;10.00;;;;;;;21.85;60.36;99999.50;4274809;33;37918;-83
2023/05/25 07:03:57;;;;;;;18.30;9.68;;;;;;;21.97;60.38;100003.84;4287713;33;20374;-84
2023/05/25 07:06:23;;;;;;;13.90;9.95;;;;;;;21.84;60.36;100009.25;4275716;33;20497;-84
2023/05/25 07:08:48;;;;;;;15.02;9.52;;;;;;;21.81;60.36;100004.19;4275102;33;23137;-83
2023/05/25 07:11:14;;;;;;;14.38;10.20;;;;;;;21.79;60.36;100007.91;4286857;33;28817;-84
2023/05/25 07:13:40;;;;;;;15.68;10.00;;;;;;;21.97;60.37;100009.16;4287457;33;20097;-83
2023/05/25 07:16:05;;;;;;;17.85;10.02;;;;;;;22.19;60.38;100016.37;4287571;33;20114;-84
2023/05/25 07:18:30;;;;;;;11.93;9.32;;;;;;;22.27;60.39;100011.34;4287403;33;20135;-84
2023/05/25 07:20:57;;;;;;;13.75;10.05;;;;;;;22.22;60.38;100011.66;4287669;33;20081;-83
2023/05/25 07:23:22;;;;;;;13.73;9.05;;;;;;;22.12;60.38;100009.84;4287142;33;20096;-84
2023/05/25 07:25:47;;;;;;;12.70;9.23;;;;;;;22.17;60.38;100015.62;4274924;33;35790;-83
2023/05/25 07:28:13;;;;;;;13.23;8.52;;;;;;;22.25;60.38;100018.56;4288787;33;20092;-83
2023/05/25 07:30:39;;;;;;;16.12;10.60;;;;;;;22.31;60.39;100008.34;4286642;33;32930;-83
2023/05/25 07:33:04;;;;;;;13.30;9.75;;;;;;;22.42;60.40;100012.81;4287245;33;20167;-84
2023/05/25 07:35:30;;;;;;;13.52;9.80;;;;;;;22.62;60.40;100005.97;4287487;33;20460;-83
2023/05/25 07:37:59;;;;;;;16.08;10.48;;;;;;;22.67;60.41;100009.94;4275220;33;20490;-84
2023/05/25 07:40:24;;;;;;;12.88;9.38;;;;;;;22.68;60.41;100008.12;4287242;33;20100;-84
2023/05/25 07:42:50;;;;;;;14.87;10.15;;;;;;;22.58;60.41;100017.78;4275055;33;20156;-84
2023/05/25 07:45:15;;;;;;;13.88;9.10;;;;;;;22.70;60.41;100008.00;4288036;33;20210;-83
2023/05/25 07:47:41;;;;;;;17.77;9.20;;;;;;;22.81;60.42;100013.34;4290020;33;20472;-84
2023/05/25 07:50:06;;;;;;;13.85;8.88;;;;;;;22.79;60.41;100013.47;4288155;33;30230;-84
2023/05/25 07:52:32;;;;;;;13.50;9.90;;;;;;;22.98;60.43;100007.59;4290091;33;20089;-83
2023/05/25 07:54:57;;;;;;;13.25;9.70;;;;;;;23.02;60.43;100010.84;4289032;33;20532;-84
2023/05/25 07:57:23;;;;;;;12.85;9.05;;;;;;;23.01;60.42;100009.16;4275836;33;35730;-84
2023/05/25 07:59:49;;;;;;;14.30;9.88;;;;;;;22.99;60.43;100008.44;4289026;33;20151;-84
2023/05/25 08:02:14;;;;;;;24.33;10.18;;;;;;;23.02;60.42;100005.53;4276523;33;20439;-84
2023/05/25 08:04:40;;;;;;;13.95;9.55;;;;;;;23.40;60.44;100010.41;4288883;33;20092;-84
2023/05/25 08:07:05;;;;;;;11.43;8.30;;;;;;;23.42;60.45;100005.78;4276554;33;20140;-84
2023/05/25 08:09:31;;;;;;;13.90;8.77;;;;;;;23.56;60.45;100009.06;4288812;33;20146;-84
2023/05/25 08:11:56;;;;;;;14.70;8.73;;;;;;;23.48;60.45;100010.63;4275874;33;33228;-84
2023/05/25 08:14:22;;;;;;;9.77;7.47;;;;;;;23.51;60.46;100008.56;4288599;33;20124;-84
2023/05/25 08:16:48;;;;;;;12.48;8.45;;;;;;;23.76;60.47;100007.44;4276790;33;20518;-84
2023/05/25 08:19:13;;;;;;;10.52;8.35;;;;;;;23.94;60.48;100001.56;4276623;33;20092;-83
2023/05/25 08:21:39;;;;;;;12.52;8.57;;;;;;;24.14;60.49;100006.91;4289071;33;35764;-83
2023/05/25 08:24:07;;;;;;;16.20;7.93;;;;;;;24.30;60.49;100009.13;4276698;33;20490;-83
2023/05/25 08:26:35;;;;;;;12.10;7.95;;;;;;;24.09;60.48;100011.75;4276863;33;20179;-84
2023/05/25 08:29:01;;;;;;;14.10;7.68;;;;;;;23.93;60.47;100013.16;4288880;33;20180;-84
2023/05/25 08:31:26;;;;;;;8.88;7.20;;;;;;;24.23;60.49;100007.09;4288518;33;20093;-83
2023/05/25 08:33:52;;;;;;;11.95;7.90;;;;;;;24.50;60.50;100004.75;4288815;33;20469;-83
2023/05/25 08:36:17;;;;;;;13.32;7.60;;;;;;;24.54;60.51;100000.00;4287633;33;33844;-84
2023/05/25 08:38:43;;;;;;;11.25;7.97;;;;;;;24.58;60.50;100010.25;4276658;33;20128;-83
2023/05/25 08:41:08;;;;;;;11.93;7.37;;;;;;;24.77;60.52;100001.53;4289849;33;20069;-83
2023/05/25 08:43:33;;;;;;;7.70;6.65;;;;;;;25.06;60.53;100001.66;4276100;33;20155;-84
2023/05/25 08:46:04;;;;;;;13.50;7.43;;;;;;;25.27;60.54;100010.41;4288532;33;20485;-85
2023/05/25 08:48:30;;;;;;;9.40;7.32;;;;;;;25.39;60.54;100008.50;4288668;33;20104;-84
2023/05/25 08:50:57;;;;;;;15.23;7.28;;;;;;;25.47;60.56;100008.66;4276236;33;20112;-84
2023/05/25 08:53:23;;;;;;;10.48;7.43;;;;;;;25.46;60.56;100001.62;4264411;33;20589;-84
2023/05/25 08:55:48;;;;;;;9.73;7.05;;;;;;;25.94;60.58;100004.34;4287463;33;20135;-84
2023/05/25 08:58:16;;;;;;;11.18;7.85;;;;;;;25.83;60.57;100004.50;4287799;33;35493;-84
2023/05/25 09:00:46;;;;;;;7.55;6.45;;;;;;;26.16;60.58;100003.22;4276189;33;20163;-84
2023/05/25 09:03:16;;;;;;;10.45;6.97;;;;;;;26.24;60.61;100000.66;4276600;33;20417;-84
2023/05/25 09:05:42;;;;;;;8.93;6.15;;;;;;;26.46;60.60;100002.19;4276708;33;20140;-84
2023/05/25 09:08:07;;;;;;;8.93;6.32;;;;;;;26.83;60.63;99996.88;4288441;33;20506;-84
2023/05/25 09:10:36;;;;;;;9.88;6.70;;;;;;;26.72;60.61;100004.22;4276259;33;20092;-84
2023/05/25 09:13:02;;;;;;;8.80;6.25;;;;;;;26.76;60.62;100005.63;4276542;33;20097;-83
2023/05/25 09:15:28;;;;;;;8.35;6.35;;;;;;;26.56;60.60;100002.19;4276342;33;20143;-84
2023/05/25 09:17:53;;;;;;;7.82;6.57;;;;;;;26.51;60.61;100004.44;4276343;33;20100;-84
2023/05/25 09:20:18;;;;;;;12.00;6.30;;;;;;;26.66;60.61;99994.13;4275644;33;25857;-84
2023/05/25 09:22:45;;;;;;;11.32;7.10;;;;;;;26.53;60.61;100008.66;4276505;33;20092;-84
2023/05/25 09:25:11;;;;;;;8.45;6.55;;;;;;;26.76;60.62;99993.13;4276048;33;20109;-84
2023/05/25 09:27:36;;;;;;;8.82;6.53;;;;;;;26.76;60.62;100003.81;4275628;33;36117;-84
2023/05/25 09:30:02;;;;;;;9.00;6.57;;;;;;;26.68;60.62;100003.69;4276238;33;20163;-84
2023/05/25 09:32:28;;;;;;;10.23;6.90;;;;;;;26.65;60.62;100005.81;4288302;33;20127;-84
2023/05/25 09:34:56;;;;;;;12.90;6.80;;;;;;;26.91;60.63;99996.13;4276372;33;20566;-83
2023/05/25 09:37:21;;;;;;;12.63;7.47;;;;;;;26.82;60.63;100002.38;4288539;33;20109;-83
2023/05/25 09:39:47;;;;;;;8.55;6.03;;;;;;;26.88;60.63;99999.94;4276410;33;20183;-84
2023/05/25 09:42:12;;;;;;;7.50;5.60;;;;;;;26.83;60.63;100004.91;4276529;33;20080;-83
2023/05/25 09:44:38;;;;;;;8.73;6.82;;;;;;;26.94;60.63;100011.88;4287050;33;34944;-83
2023/05/25 09:47:04;;;;;;;8.15;6.32;;;;;;;26.93;60.63;100003.00;4288376;33;20184;-84
2023/05/25 09:49:30;;;;;;;7.95;6.43;;;;;;;27.21;60.65;100006.56;4275894;33;20406;-84
2023/05/25 09:51:55;;;;;;;7.80;6.50;;;;;;;27.21;60.65;100003.91;4276165;33;20089;-84
2023/05/25 09:54:21;;;;;;;6.93;5.95;;;;;;;27.33;60.65;100004.53;4289451;33;20133;-83
2023/05/25 09:56:47;;;;;;;8.90;6.32;;;;;;;27.21;60.65;100006.56;4288178;33;20164;-83
2023/05/25 09:59:12;;;;;;;9.48;6.32;;;;;;;27.25;60.65;100003.59;4275186;33;29048;-84
2023/05/25 10:01:37;;;;;;;7.85;5.43;;;;;;;27.37;60.66;100002.38;4287367;33;33315;-83
2023/05/25 10:04:03;;;;;;;10.85;5.30;;;;;;;27.46;60.66;100001.50;4275119;33;26639;-83
2023/05/25 10:06:28;;;;;;;8.35;6.18;;;;;;;27.36;60.66;100006.91;4276063;33;20168;-84
2023/05/25 10:08:55;;;;;;;8.95;4.95;;;;;;;27.15;60.65;100014.31;4286866;33;32630;-84
2023/05/25 10:11:21;;;;;;;6.00;5.05;;;;;;;27.11;60.64;100007.59;4287949;33;20092;-82
2023/05/25 10:13:47;;;;;;;6.90;5.80;;;;;;;26.99;60.64;100012.31;4287927;33;20132;-84
2023/05/25 10:16:18;;;;;;;6.78;5.32;;;;;;;26.96;60.64;99999.19;4275606;33;21749;-84
2023/05/25 10:18:51;;;;;;;6.85;5.40;;;;;;;27.20;60.65;99999.53;4276109;33;20151;-83
2023/05/25 10:21:17;;;;;;;8.63;5.53;;;;;;;27.15;60.65;100001.81;4276023;33;20123;-83
2023/05/25 10:23:51;;;;;;;5.82;4.70;;;;;;;27.45;60.66;99998.00;4287860;33;20124;-82
2023/05/25 10:26:21;;;;;;;5.25;4.75;;;;;;;27.36;60.66;99992.69;4287866;33;20109;-83
2023/05/25 10:28:49;;;;;;;7.00;4.47;;;;;;;27.17;60.64;99991.81;4275734;33;20092;-80
2023/05/25 10:31:15;;;;;;;5.97;4.37;;;;;;;27.39;60.65;99992.38;4287630;33;20123;-81
2023/05/25 10:33:41;;;;;;;7.25;5.18;;;;;;;27.76;60.68;99981.59;4287623;33;20510;-82
2023/05/25 10:36:07;;;;;;;7.22;4.78;;;;;;;27.61;60.67;99983.91;4275674;33;20135;-81
2023/05/25 10:38:34;;;;;;;8.18;4.87;;;;;;;27.55;60.66;99981.03;4275557;33;20163;-82
2023/05/25 10:40:59;;;;;;;6.37;4.78;;;;;;;27.73;60.68;99988.09;4275064;33;24694;-81
2023/05/25 10:43:25;;;;;;;9.52;5.55;;;;;;;27.79;60.68;99978.59;4263499;33;20164;-82
2023/05/25 10:45:50;;;;;;;5.93;4.47;;;;;;;27.93;60.69;99974.56;4275489;33;20101;-83
2023/05/25 10:48:16;;;;;;;6.12;4.07;;;;;;;27.74;60.67;99986.25;4288502;33;20749;-84
2023/05/25 10:50:41;;;;;;;6.20;4.28;;;;;;;27.61;60.67;99986.59;4287379;33;20446;-82
2023/05/25 10:53:08;;;;;;;6.80;4.28;;;;;;;27.69;60.67;99978.69;4275437;33;20180;-83
2023/05/25 10:56:03;;;;;;;9.20;4.78;;;;;;;27.95;60.69;99976.09;4275532;33;20152;-82
2023/05/25 10:58:29;;;;;;;9.27;4.70;;;;;;;27.86;60.68;99976.16;4269578;33;20084;-84
2023/05/25 11:01:01;;;;;;;6.35;4.62;;;;;;;27.83;60.69;99977.31;4287753;33;20148;-83
2023/05/25 11:03:49;;;;;;;5.80;4.30;;;;;;;27.82;60.67;99972.94;4287483;33;20455;-83
2023/05/25 11:06:20;;;;;;;8.75;4.53;;;;;;;27.43;60.67;99975.88;4287571;33;20131;-82
2023/05/25 11:08:58;;;;;;;6.30;4.40;;;;;;;27.26;60.65;99976.72;4287362;33;20522;-82
2023/05/25 11:11:41;;;;;;;7.45;4.10;;;;;;;27.19;60.66;99972.94;4287528;33;20152;-82
2023/05/25 11:14:42;;;;;;;5.57;4.50;;;;;;;27.63;60.67;99968.59;4278630;33;20514;-82
2023/05/25 11:17:10;;;;;;;7.18;4.43;;;;;;;28.10;60.70;99971.81;4259556;33;20123;-81